Time;durP1;ratioP1;P1;durP2;ratioP2;P2;SDS_P1;SDS_P2;PMS_P1;PMS_P2;Temp;Humidity;BMP_temperature;BMP_pressure;BME280_temperature;BME280_humidity;BME280_pressure;Samples;Min_cycle;Max_cycle;Signal;HPM_P1;HPM_P2
2023/08/11 00:00:08;;;;;;;;;;;19.80;99.90;;;;;;4979466;28;20081;-71
2023/08/11 00:02:36;;;;;;;7.00;2.53;;;19.80;99.90;;;;;;4982154;28;19909;-71
2023/08/11 00:05:02;;;;;;;4.13;2.92;;;19.80;99.90;;;;;;4974675;28;20023;-70
2023/08/11 00:07:28;;;;;;;;;;;19.70;99.90;;;;;;4977300;28;20046;-71
2023/08/11 00:09:55;;;;;;;6.38;2.53;;;19.70;99.90;;;;;;4976101;28;19910;-71
2023/08/11 00:12:20;;;;;;;4.38;2.55;;;19.70;99.90;;;;;;4974749;28;20027;-71
2023/08/11 00:14:46;;;;;;;4.13;2.77;;;19.70;99.90;;;;;;4976073;28;20042;-71
2023/08/11 00:17:12;;;;;;;4.73;2.97;;;19.70;99.90;;;;;;4978247;28;20298;-70
2023/08/11 00:19:37;;;;;;;8.43;3.40;;;19.60;99.90;;;;;;4975469;28;20029;-76
2023/08/11 00:22:03;;;;;;;4.33;2.40;;;19.60;99.90;;;;;;4974149;28;20033;-78
2023/08/11 00:24:29;;;;;;;4.27;2.50;;;19.60;99.90;;;;;;4978617;28;20115;-80
2023/08/11 00:26:54;;;;;;;4.43;2.67;;;19.50;99.90;;;;;;4974819;28;20803;-83
2023/08/11 00:29:20;;;;;;;7.67;2.53;;;19.60;99.90;;;;;;4978067;28;20129;-85
2023/08/11 00:31:46;;;;;;;7.00;2.65;;;19.50;99.90;;;;;;4979364;28;20509;-81
2023/08/11 00:34:12;;;;;;;7.15;2.95;;;19.50;99.90;;;;;;4989615;28;20035;-83
2023/08/11 00:36:38;;;;;;;9.77;2.60;;;19.50;99.90;;;;;;4993771;28;20026;-75
2023/08/11 00:39:03;;;;;;;3.23;2.47;;;19.50;99.90;;;;;;4985181;28;20027;-80
2023/08/11 00:41:30;;;;;;;3.50;2.20;;;19.40;99.90;;;;;;4979535;28;20033;-71
2023/08/11 00:43:55;;;;;;;;;;;19.30;99.90;;;;;;4982633;28;20019;-71
2023/08/11 00:46:23;;;;;;;4.22;2.40;;;19.30;99.90;;;;;;4983105;28;19917;-70
2023/08/11 00:48:53;;;;;;;5.30;2.85;;;19.30;99.90;;;;;;4981070;28;20102;-71
2023/08/11 00:51:22;;;;;;;4.07;2.90;;;19.30;99.90;;;;;;4986694;28;20413;-74
2023/08/11 00:53:51;;;;;;;3.33;2.40;;;19.30;99.90;;;;;;4979872;28;20081;-79
2023/08/11 00:56:22;;;;;;;6.13;2.58;;;19.30;99.90;;;;;;4978682;28;20035;-83
2023/08/11 00:58:52;;;;;;;5.68;2.60;;;19.30;99.90;;;;;;4985175;28;20022;-84
2023/08/11 01:01:18;;;;;;;5.32;3.08;;;19.20;99.90;;;;;;4977437;28;20077;-84
2023/08/11 01:03:47;;;;;;;8.13;2.55;;;19.10;99.90;;;;;;4978589;28;20058;-71
2023/08/11 01:06:18;;;;;;;4.85;2.50;;;19.10;99.90;;;;;;4985876;28;20031;-71
2023/08/11 01:09:04;;;;;;;6.93;2.47;;;19.10;99.90;;;;;;4981243;28;20068;-78
2023/08/11 01:11:52;;;;;;;7.00;2.97;;;19.10;99.90;;;;;;4983256;28;20409;-71
2023/08/11 01:14:40;;;;;;;2.95;2.65;;;19.10;99.90;;;;;;4977144;28;20042;-72
2023/08/11 01:17:09;;;;;;;4.70;2.20;;;19.10;99.90;;;;;;4989739;28;20528;-71
2023/08/11 01:19:36;;;;;;;5.45;2.53;;;19.00;99.90;;;;;;4978183;28;20030;-71
2023/08/11 01:22:03;;;;;;;5.07;2.88;;;19.00;99.90;;;;;;4978416;28;20766;-70
2023/08/11 01:24:30;;;;;;;5.07;2.60;;;18.90;99.90;;;;;;4982773;28;20039;-71
2023/08/11 01:26:57;;;;;;;7.25;2.70;;;18.80;99.90;;;;;;4976189;28;20022;-70
2023/08/11 01:29:24;;;;;;;5.88;3.05;;;18.80;99.90;;;;;;4978383;28;20023;-70
2023/08/11 01:31:50;;;;;;;;;;;18.80;99.90;;;;;;4983292;28;20413;-70
2023/08/11 01:34:16;;;;;;;4.32;2.95;;;18.70;99.90;;;;;;4979787;28;19964;-71
2023/08/11 01:36:42;;;;;;;4.90;2.80;;;18.80;99.90;;;;;;4978870;28;20038;-70
2023/08/11 01:39:09;;;;;;;;;;;18.80;99.90;;;;;;4985611;28;20025;-70
2023/08/11 01:41:36;;;;;;;4.10;2.70;;;18.80;99.90;;;;;;4983137;28;19936;-71
2023/08/11 01:44:03;;;;;;;7.03;2.58;;;18.70;99.90;;;;;;4977640;28;20019;-71
2023/08/11 01:46:30;;;;;;;6.57;3.35;;;18.70;99.90;;;;;;4981367;28;20572;-71
2023/08/11 01:48:56;;;;;;;5.03;2.60;;;18.70;99.90;;;;;;4979001;28;20042;-71
2023/08/11 01:51:23;;;;;;;9.00;2.95;;;18.70;99.90;;;;;;4981997;28;20031;-72
2023/08/11 01:53:50;;;;;;;4.60;2.53;;;18.80;99.90;;;;;;4979093;28;20018;-71
2023/08/11 01:56:17;;;;;;;7.25;3.10;;;18.70;99.90;;;;;;4978835;28;20043;-72
2023/08/11 01:58:43;;;;;;;4.85;2.90;;;18.80;99.90;;;;;;4981123;28;20064;-70
2023/08/11 02:01:09;;;;;;;5.32;3.28;;;18.70;99.90;;;;;;4986059;28;20026;-70
2023/08/11 02:03:35;;;;;;;8.53;3.10;;;18.60;99.90;;;;;;4983087;28;20046;-76
2023/08/11 02:06:00;;;;;;;4.07;2.77;;;18.60;99.90;;;;;;4978900;28;20514;-79
2023/08/11 02:08:26;;;;;;;5.07;2.63;;;18.60;99.90;;;;;;4986123;28;20037;-76
2023/08/11 02:10:55;;;;;;;4.37;2.70;;;18.60;99.90;;;;;;4985562;28;20045;-80
2023/08/11 02:13:21;;;;;;;4.80;3.20;;;18.60;99.90;;;;;;4977284;28;20026;-82
2023/08/11 02:15:46;;;;;;;5.90;3.17;;;18.50;99.90;;;;;;4982991;28;20104;-73
2023/08/11 02:18:12;;;;;;;5.17;3.27;;;18.50;99.90;;;;;;4987379;28;20466;-73
2023/08/11 02:20:37;;;;;;;7.30;3.10;;;18.40;99.90;;;;;;4982366;28;20117;-72
2023/08/11 02:23:03;;;;;;;5.93;3.10;;;18.40;99.90;;;;;;4984224;28;20030;-70
2023/08/11 02:25:29;;;;;;;4.97;2.63;;;18.30;99.90;;;;;;4978812;28;20838;-70
2023/08/11 02:27:54;;;;;;;7.43;2.87;;;18.40;99.90;;;;;;4978988;28;20026;-71
2023/08/11 02:30:21;;;;;;;4.93;2.90;;;18.50;99.90;;;;;;4985547;28;20115;-74
2023/08/11 02:32:47;;;;;;;5.20;3.15;;;18.30;99.90;;;;;;4980422;28;20062;-71
2023/08/11 02:35:14;;;;;;;5.43;2.83;;;18.30;99.90;;;;;;4979385;28;20111;-79
2023/08/11 02:37:40;;;;;;;;;;;18.30;99.90;;;;;;4984064;28;20026;-73
2023/08/11 02:40:09;;;;;;;3.95;2.55;;;18.30;99.90;;;;;;4983562;28;19917;-74
2023/08/11 02:42:38;;;;;;;6.35;3.05;;;18.40;99.90;;;;;;4980275;28;20046;-73
2023/08/11 02:45:04;;;;;;;5.43;2.90;;;18.30;99.90;;;;;;4979075;28;20034;-78
2023/08/11 02:47:31;;;;;;;6.75;2.90;;;18.30;99.90;;;;;;4981493;28;20030;-75
2023/08/11 02:49:56;;;;;;;12.95;3.55;;;18.30;99.90;;;;;;4977362;28;20561;-79
2023/08/11 02:52:22;;;;;;;4.80;3.07;;;18.20;99.90;;;;;;4980661;28;20125;-72
2023/08/11 02:54:48;;;;;;;4.77;2.73;;;18.20;99.90;;;;;;4976838;28;20038;-71
2023/08/11 02:57:14;;;;;;;7.80;2.60;;;18.10;99.90;;;;;;4983941;28;20061;-71
2023/08/11 02:59:39;;;;;;;3.90;2.70;;;18.00;99.90;;;;;;4977135;28;20090;-71
2023/08/11 03:02:07;;;;;;;5.00;2.70;;;18.00;99.90;;;;;;4981108;28;20458;-71
2023/08/11 03:04:36;;;;;;;5.03;3.25;;;17.90;99.90;;;;;;4978560;28;20026;-75
2023/08/11 03:07:05;;;;;;;5.18;3.05;;;17.90;99.90;;;;;;4973236;28;20067;-73
2023/08/11 03:09:31;;;;;;;11.20;3.30;;;18.00;99.90;;;;;;4977821;28;20049;-82
2023/08/11 03:11:57;;;;;;;3.33;2.78;;;18.00;99.90;;;;;;4981555;28;20513;-80
2023/08/11 03:14:23;;;;;;;6.67;3.17;;;18.00;99.90;;;;;;4975022;28;20047;-73
2023/08/11 03:16:48;;;;;;;5.83;3.73;;;18.00;99.90;;;;;;4983522;28;20281;-69
2023/08/11 03:19:14;;;;;;;4.80;2.80;;;17.90;99.90;;;;;;4973384;28;20050;-69
2023/08/11 03:21:40;;;;;;;3.37;2.60;;;17.90;99.90;;;;;;4984961;28;20290;-70
2023/08/11 03:24:06;;;;;;;6.43;3.67;;;18.00;99.90;;;;;;4983331;28;20026;-69
2023/08/11 03:26:32;;;;;;;4.43;3.20;;;17.90;99.90;;;;;;4981890;28;20127;-69
2023/08/11 03:28:58;;;;;;;5.43;2.92;;;17.90;99.90;;;;;;4977417;28;20528;-70
2023/08/11 03:31:24;;;;;;;4.60;3.03;;;17.90;99.90;;;;;;4989838;28;20046;-72
2023/08/11 03:33:49;;;;;;;6.77;3.10;;;17.80;99.90;;;;;;4979678;28;20038;-72
2023/08/11 03:36:15;;;;;;;6.20;3.10;;;17.80;99.90;;;;;;4980518;28;20049;-71
2023/08/11 03:38:40;;;;;;;4.80;3.23;;;17.70;99.90;;;;;;4978575;28;20507;-78
2023/08/11 03:41:06;;;;;;;6.00;3.63;;;17.80;99.90;;;;;;4989659;28;20038;-79
2023/08/11 03:43:32;;;;;;;6.50;3.07;;;17.70;99.90;;;;;;4983919;28;20027;-80
2023/08/11 03:45:58;;;;;;;5.10;3.13;;;17.70;99.90;;;;;;4993681;28;20034;-71
2023/08/11 03:48:23;;;;;;;8.88;3.88;;;17.70;99.90;;;;;;4976910;28;20133;-75
2023/08/11 03:50:49;;;;;;;5.27;2.93;;;17.70;99.90;;;;;;4992272;28;20196;-76
2023/08/11 03:53:15;;;;;;;4.53;3.17;;;17.80;99.90;;;;;;4988636;28;20054;-75
2023/08/11 03:55:43;;;;;;;5.47;3.30;;;17.70;99.90;;;;;;4979930;28;20042;-73
2023/08/11 03:58:09;;;;;;;4.18;2.95;;;17.70;99.90;;;;;;4989781;28;20117;-81
2023/08/11 04:00:35;;;;;;;5.33;3.13;;;17.70;99.90;;;;;;4989532;28;20549;-72
2023/08/11 04:03:01;;;;;;;6.75;3.33;;;17.70;99.90;;;;;;4994942;28;20655;-69
2023/08/11 04:05:27;;;;;;;4.28;3.05;;;17.80;99.90;;;;;;4981588;28;20035;-69
2023/08/11 04:07:53;;;;;;;6.38;3.70;;;17.60;99.90;;;;;;4981075;28;20799;-70
2023/08/11 04:10:19;;;;;;;5.68;2.83;;;17.60;99.90;;;;;;4983631;28;20033;-69
2023/08/11 04:12:44;;;;;;;5.10;3.00;;;17.60;99.90;;;;;;5007936;28;20030;-68
2023/08/11 04:15:10;;;;;;;4.70;3.30;;;17.80;99.90;;;;;;4989850;28;20042;-69
2023/08/11 04:17:36;;;;;;;8.33;3.60;;;17.80;99.90;;;;;;4988564;28;20035;-68
2023/08/11 04:20:12;;;;;;;12.13;3.08;;;17.70;99.90;;;;;;4978303;28;20026;-69
2023/08/11 04:22:38;;;;;;;3.55;2.78;;;17.70;99.90;;;;;;4976683;28;20034;-70
2023/08/11 04:25:05;;;;;;;13.23;3.47;;;17.70;99.90;;;;;;4976044;28;20391;-71
2023/08/11 04:27:31;;;;;;;9.57;3.10;;;17.70;99.90;;;;;;4979728;28;20034;-69
2023/08/11 04:29:57;;;;;;;8.90;3.67;;;17.80;99.90;;;;;;4979783;28;20031;-69
2023/08/11 04:32:23;;;;;;;7.37;2.90;;;17.80;99.90;;;;;;4979198;28;20040;-69
2023/08/11 04:34:49;;;;;;;5.82;3.10;;;17.70;99.90;;;;;;4976123;28;20056;-69
2023/08/11 04:37:17;;;;;;;;;;;17.60;99.90;;;;;;5002904;28;20591;-69
2023/08/11 04:39:42;;;;;;;7.03;3.67;;;17.60;99.90;;;;;;4984626;28;19913;-69
2023/08/11 04:42:08;;;;;;;5.73;2.90;;;17.70;99.90;;;;;;4973535;28;20083;-70
2023/08/11 04:44:34;;;;;;;9.73;3.03;;;17.70;99.90;;;;;;4991069;28;20105;-72
2023/08/11 04:46:59;;;;;;;4.82;3.17;;;17.70;99.90;;;;;;4983043;28;20537;-72
2023/08/11 04:49:25;;;;;;;5.53;3.10;;;17.70;99.90;;;;;;4991390;28;20050;-75
2023/08/11 04:51:51;;;;;;;4.57;3.00;;;17.80;99.90;;;;;;4989311;28;20448;-73
2023/08/11 04:54:17;;;;;;;5.90;3.20;;;17.80;99.90;;;;;;4988512;28;20039;-77
2023/08/11 04:56:43;;;;;;;3.67;2.67;;;17.80;99.90;;;;;;4990274;28;20083;-70
2023/08/11 04:59:09;;;;;;;5.65;3.30;;;17.70;99.90;;;;;;4995652;28;20035;-73
2023/08/11 05:01:35;;;;;;;5.25;2.90;;;17.60;99.90;;;;;;4996685;28;20614;-70
2023/08/11 05:04:01;;;;;;;4.90;3.00;;;17.70;99.90;;;;;;4982872;28;20038;-71
2023/08/11 05:06:27;;;;;;;3.47;2.90;;;17.70;99.90;;;;;;4981864;28;20034;-70
2023/08/11 05:08:53;;;;;;;6.30;3.00;;;17.70;99.90;;;;;;4983273;28;20103;-70
2023/08/11 05:11:19;;;;;;;6.93;3.08;;;17.90;99.90;;;;;;4985977;28;20027;-73
2023/08/11 05:13:44;;;;;;;8.20;3.30;;;17.80;99.90;;;;;;4981524;28;20583;-70
2023/08/11 05:16:10;;;;;;;6.57;3.50;;;17.90;99.90;;;;;;4982851;28;20064;-70
2023/08/11 05:18:35;;;;;;;5.60;3.40;;;18.80;99.90;;;;;;4989603;28;20113;-73
2023/08/11 05:21:01;;;;;;;5.73;3.17;;;19.70;99.90;;;;;;4983191;28;20050;-73
2023/08/11 05:23:27;;;;;;;4.90;3.10;;;19.70;99.90;;;;;;4980601;28;20027;-82
2023/08/11 05:25:53;;;;;;;8.03;3.43;;;20.60;99.90;;;;;;4976978;28;20038;-80
2023/08/11 05:28:19;;;;;;;5.35;2.75;;;19.90;99.90;;;;;;4982485;28;20121;-75
2023/08/11 05:30:45;;;;;;;12.80;3.72;;;19.00;99.90;;;;;;4986305;28;20111;-77
2023/08/11 05:33:12;;;;;;;8.00;3.37;;;18.70;99.90;;;;;;4984419;28;20133;-78
2023/08/11 05:35:39;;;;;;;9.95;3.15;;;18.60;99.90;;;;;;5002298;28;20477;-82
2023/08/11 05:38:05;;;;;;;9.20;2.80;;;18.60;99.90;;;;;;4980523;28;20391;-80
2023/08/11 05:40:31;;;;;;;10.63;3.05;;;18.80;99.90;;;;;;4983752;28;20030;-82
2023/08/11 05:42:57;;;;;;;5.88;3.10;;;21.20;99.90;;;;;;4985350;28;20042;-78
2023/08/11 05:45:23;;;;;;;7.50;2.90;;;22.80;98.00;;;;;;4984995;28;20034;-71
2023/08/11 05:47:49;;;;;;;4.90;2.80;;;23.70;93.00;;;;;;4982700;28;20289;-71
2023/08/11 05:50:15;;;;;;;;;;;24.90;91.30;;;;;;4983031;28;20034;-71
2023/08/11 05:52:40;;;;;;;8.57;2.80;;;23.40;92.20;;;;;;4978791;28;19909;-72
2023/08/11 05:55:07;;;;;;;4.87;2.77;;;24.00;91.70;;;;;;4983018;28;20052;-69
2023/08/11 05:57:32;;;;;;;8.57;3.10;;;25.10;88.90;;;;;;4991873;28;20030;-69
2023/08/11 05:59:58;;;;;;;7.57;2.72;;;26.60;83.20;;;;;;4991632;28;20048;-70
2023/08/11 06:02:23;;;;;;;8.82;3.10;;;26.50;81.10;;;;;;4978978;28;20072;-72
2023/08/11 06:04:51;;;;;;;4.30;2.30;;;25.60;81.30;;;;;;4981038;28;20039;-70
2023/08/11 06:07:16;;;;;;;8.38;3.63;;;25.70;84.10;;;;;;4979650;28;20057;-69
2023/08/11 06:09:42;;;;;;;4.60;2.50;;;24.40;86.70;;;;;;4985719;28;20058;-70
2023/08/11 06:12:08;;;;;;;9.60;3.20;;;23.70;90.30;;;;;;4985119;28;20467;-69
2023/08/11 06:14:33;;;;;;;5.47;2.33;;;25.20;87.00;;;;;;4976669;28;20023;-70
2023/08/11 06:16:59;;;;;;;6.37;2.90;;;24.00;88.70;;;;;;4975221;28;20347;-70
2023/08/11 06:19:25;;;;;;;6.00;2.93;;;23.20;90.60;;;;;;4977232;28;20026;-70
2023/08/11 06:21:51;;;;;;;6.28;2.95;;;23.00;92.20;;;;;;4977176;28;20816;-70
2023/08/11 06:24:16;;;;;;;3.38;2.60;;;22.90;93.40;;;;;;4990478;28;20457;-70
2023/08/11 06:26:43;;;;;;;3.77;2.57;;;23.10;93.70;;;;;;4993882;28;20502;-70
2023/08/11 06:29:09;;;;;;;9.43;2.95;;;23.60;92.60;;;;;;4977870;28;20105;-70
2023/08/11 06:31:35;;;;;;;6.57;2.97;;;24.40;90.10;;;;;;4986255;28;20983;-70
2023/08/11 06:34:01;;;;;;;6.55;2.70;;;23.50;91.20;;;;;;4990932;28;20038;-69
2023/08/11 06:36:27;;;;;;;7.55;2.60;;;22.90;93.20;;;;;;4978452;28;20509;-69
2023/08/11 06:38:52;;;;;;;5.75;3.35;;;22.80;93.70;;;;;;4976041;28;20038;-70
2023/08/11 06:41:18;;;;;;;3.97;2.63;;;22.80;93.90;;;;;;4995292;28;20031;-68
2023/08/11 06:43:46;;;;;;;7.97;3.13;;;22.90;93.60;;;;;;4980999;28;21632;-70
2023/08/11 06:46:12;;;;;;;5.50;3.03;;;22.90;93.20;;;;;;4977639;28;20122;-70
2023/08/11 06:48:37;;;;;;;6.03;3.20;;;23.00;93.30;;;;;;4982440;28;20133;-70
2023/08/11 06:51:04;;;;;;;3.13;2.50;;;23.20;92.90;;;;;;4981878;28;20522;-70
2023/08/11 06:53:29;;;;;;;11.00;3.30;;;23.50;92.80;;;;;;4982944;28;20688;-70
2023/08/11 06:55:55;;;;;;;9.17;2.97;;;23.30;93.60;;;;;;4981660;28;20113;-70
2023/08/11 06:58:20;;;;;;;4.07;2.40;;;23.00;93.40;;;;;;4976646;28;20027;-70
2023/08/11 07:00:46;;;;;;;5.80;2.77;;;22.80;94.20;;;;;;4998529;28;20435;-69
2023/08/11 07:03:11;;;;;;;12.93;3.03;;;22.70;94.60;;;;;;4983539;28;20401;-69
2023/08/11 07:05:37;;;;;;;26.80;3.90;;;22.70;95.00;;;;;;4985792;28;20026;-67
2023/08/11 07:08:03;;;;;;;10.80;3.10;;;22.60;94.80;;;;;;4982799;28;20030;-68
2023/08/11 07:10:29;;;;;;;3.97;2.78;;;22.70;94.80;;;;;;4980562;28;20085;-67
2023/08/11 07:12:54;;;;;;;6.87;2.83;;;22.70;95.10;;;;;;4974385;28;20122;-66
2023/08/11 07:15:20;;;;;;;6.17;3.40;;;22.80;95.50;;;;;;4974583;28;20514;-69
2023/08/11 07:17:46;;;;;;;14.17;3.33;;;22.80;95.80;;;;;;4985461;28;20034;-68
2023/08/11 07:20:12;;;;;;;11.63;3.33;;;22.90;95.60;;;;;;4989043;28;20035;-67
2023/08/11 07:22:37;;;;;;;7.13;2.83;;;23.40;93.90;;;;;;4980269;28;20022;-68
2023/08/11 07:25:03;;;;;;;6.47;2.90;;;23.30;93.80;;;;;;4995010;28;20050;-70
2023/08/11 07:27:29;;;;;;;5.40;2.90;;;23.30;94.10;;;;;;5008117;28;20109;-70
2023/08/11 07:29:54;;;;;;;3.80;3.20;;;23.40;94.30;;;;;;5002166;28;20026;-71
2023/08/11 07:32:20;;;;;;;6.00;3.03;;;23.40;94.40;;;;;;5005633;28;20030;-71
2023/08/11 07:34:46;;;;;;;5.53;3.03;;;23.50;94.60;;;;;;4980697;28;20825;-70
2023/08/11 07:37:11;;;;;;;4.77;3.00;;;24.20;93.00;;;;;;4974952;28;20035;-70
2023/08/11 07:39:37;;;;;;;5.83;3.23;;;24.20;92.60;;;;;;4984180;28;20056;-73
2023/08/11 07:42:03;;;;;;;9.10;2.97;;;24.00;93.00;;;;;;4994792;28;20038;-73
2023/08/11 07:44:33;;;;;;;4.28;2.95;;;23.90;93.40;;;;;;4979063;28;20071;-75
2023/08/11 07:47:01;;;;;;;14.07;3.38;;;24.20;93.20;;;;;;4976811;28;20113;-74
2023/08/11 07:49:27;;;;;;;9.32;2.92;;;23.80;93.30;;;;;;4981508;28;20125;-71
2023/08/11 07:51:53;;;;;;;6.75;2.75;;;24.10;93.30;;;;;;4981656;28;20030;-73
2023/08/11 07:54:19;;;;;;;5.10;2.75;;;24.90;92.40;;;;;;4983544;28;20480;-71
2023/08/11 07:56:44;;;;;;;11.85;3.53;;;24.80;91.90;;;;;;4977519;28;20037;-71
2023/08/11 07:59:11;;;;;;;8.80;3.72;;;24.50;92.60;;;;;;4995348;28;20050;-71
2023/08/11 08:01:37;;;;;;;8.77;3.60;;;24.40;93.40;;;;;;4988418;28;20505;-71
2023/08/11 08:04:03;;;;;;;8.73;3.95;;;24.30;93.80;;;;;;4980304;28;20042;-71
2023/08/11 08:06:30;;;;;;;8.15;3.67;;;24.40;94.40;;;;;;4979349;28;20106;-71
2023/08/11 08:08:56;;;;;;;7.68;3.60;;;24.40;94.30;;;;;;4994525;28;20410;-71
2023/08/11 08:11:21;;;;;;;7.57;4.13;;;24.50;94.40;;;;;;4987996;28;20029;-71
2023/08/11 08:13:47;;;;;;;14.80;4.90;;;24.30;94.80;;;;;;4979384;28;20037;-71
2023/08/11 08:16:13;;;;;;;6.07;4.33;;;24.40;95.10;;;;;;4980412;28;20064;-72
2023/08/11 08:18:38;;;;;;;7.90;4.03;;;24.50;94.40;;;;;;4978215;28;20665;-71
2023/08/11 08:21:04;;;;;;;8.10;4.23;;;24.70;95.40;;;;;;4985437;28;20034;-71
2023/08/11 08:23:29;;;;;;;8.17;4.43;;;24.80;94.50;;;;;;4981183;28;20035;-71
2023/08/11 08:25:55;;;;;;;8.30;4.03;;;24.90;94.30;;;;;;4983164;28;20030;-71
2023/08/11 08:28:20;;;;;;;9.57;4.30;;;25.00;94.80;;;;;;4981501;28;20034;-70
2023/08/11 08:30:46;;;;;;;10.87;4.00;;;25.40;93.90;;;;;;4979632;28;20091;-71
2023/08/11 08:33:12;;;;;;;13.73;4.60;;;25.50;93.50;;;;;;4977917;28;20037;-71
2023/08/11 08:35:37;;;;;;;11.97;4.50;;;25.60;93.30;;;;;;4976324;28;20870;-71
2023/08/11 08:38:05;;;;;;;10.03;4.30;;;25.60;93.50;;;;;;4983160;28;20022;-71
2023/08/11 08:40:31;;;;;;;13.00;4.00;;;25.60;93.00;;;;;;4980964;28;20342;-70
2023/08/11 08:42:57;;;;;;;14.55;4.63;;;25.80;92.20;;;;;;4981138;28;20030;-70
2023/08/11 08:45:25;;;;;;;9.27;4.18;;;26.00;91.80;;;;;;4994449;28;20619;-71
2023/08/11 08:47:52;;;;;;;12.93;5.45;;;26.90;90.00;;;;;;4979133;28;20421;-70
2023/08/11 08:50:18;;;;;;;14.80;5.03;;;30.50;81.50;;;;;;4978014;28;20034;-71
2023/08/11 08:52:44;;;;;;;16.45;4.43;;;32.40;72.00;;;;;;4985521;28;20590;-71
2023/08/11 08:55:10;;;;;;;17.55;4.43;;;31.30;72.30;;;;;;4978887;28;20121;-71
2023/08/11 08:57:36;;;;;;;11.25;4.05;;;30.60;73.10;;;;;;4981987;28;20060;-71
2023/08/11 09:00:02;;;;;;;12.02;4.53;;;31.00;73.20;;;;;;4981945;28;20100;-71
2023/08/11 09:02:30;;;;;;;9.15;4.07;;;31.30;70.50;;;;;;4979151;28;20486;-71
2023/08/11 09:04:56;;;;;;;9.07;3.90;;;30.10;73.50;;;;;;4980253;28;20045;-71
2023/08/11 09:07:22;;;;;;;9.38;3.97;;;31.80;71.60;;;;;;4979974;28;20035;-71
2023/08/11 09:09:48;;;;;;;14.60;3.65;;;32.00;69.20;;;;;;4990224;28;20031;-71
2023/08/11 09:12:13;;;;;;;8.30;4.03;;;30.10;73.90;;;;;;5002398;28;20059;-72
2023/08/11 09:14:39;;;;;;;9.30;4.13;;;29.30;76.80;;;;;;4981892;28;20119;-71
2023/08/11 09:17:05;;;;;;;5.55;2.88;;;28.70;78.70;;;;;;4999574;28;20095;-72
2023/08/11 09:19:31;;;;;;;7.85;3.67;;;29.50;76.40;;;;;;5000962;28;20865;-72
2023/08/11 09:21:56;;;;;;;9.88;3.65;;;33.80;69.40;;;;;;4984164;28;20087;-72
2023/08/11 09:24:23;;;;;;;10.65;3.90;;;37.90;59.70;;;;;;4980006;28;20034;-72
2023/08/11 09:26:49;;;;;;;6.57;3.33;;;38.40;57.50;;;;;;4979924;28;20073;-72
2023/08/11 09:29:19;;;;;;;7.30;2.95;;;39.90;55.20;;;;;;4977883;28;20057;-72
2023/08/11 09:31:52;;;;;;;12.55;3.95;;;36.80;55.20;;;;;;4981879;28;20041;-72
2023/08/11 09:34:20;;;;;;;8.25;3.13;;;35.40;61.00;;;;;;4979063;28;20058;-72
2023/08/11 09:36:48;;;;;;;8.90;3.70;;;35.40;61.30;;;;;;4980075;28;20121;-71
2023/08/11 09:39:15;;;;;;;14.50;4.60;;;39.60;57.20;;;;;;4977576;28;20030;-72
2023/08/11 09:41:42;;;;;;;14.60;3.15;;;42.40;52.30;;;;;;4981040;28;20042;-72
2023/08/11 09:44:14;;;;;;;6.75;3.30;;;43.40;49.60;;;;;;4987815;28;20782;-71
2023/08/11 09:46:40;;;;;;;8.75;3.63;;;44.50;49.00;;;;;;4986632;28;20034;-72
2023/08/11 09:49:06;;;;;;;6.75;2.83;;;43.40;49.10;;;;;;4973082;28;20491;-71
2023/08/11 09:51:34;;;;;;;9.02;3.05;;;43.90;46.70;;;;;;5007395;28;20086;-72
2023/08/11 09:54:06;;;;;;;9.60;3.30;;;44.90;47.70;;;;;;4983363;28;20495;-71
2023/08/11 09:56:41;;;;;;;5.35;2.47;;;45.10;46.10;;;;;;4976149;28;20034;-71
2023/08/11 09:59:20;;;;;;;8.30;3.60;;;44.40;46.80;;;;;;5004859;28;20039;-71
2023/08/11 10:01:47;;;;;;;6.65;2.97;;;44.70;47.30;;;;;;4991218;28;20042;-71
2023/08/11 10:04:32;;;;;;;4.85;2.42;;;46.00;46.10;;;;;;4973357;28;20034;-71
2023/08/11 10:07:01;;;;;;;8.35;3.45;;;47.00;45.00;;;;;;4974123;28;20046;-71
2023/08/11 10:09:31;;;;;;;4.82;2.63;;;45.90;45.30;;;;;;4981387;28;20125;-71
2023/08/11 10:11:59;;;;;;;4.25;2.63;;;45.70;44.90;;;;;;4980944;28;20069;-72
2023/08/11 10:14:27;;;;;;;4.85;2.78;;;45.60;44.00;;;;;;4993201;28;20046;-72
2023/08/11 10:16:53;;;;;;;5.53;3.20;;;46.10;45.30;;;;;;4996999;28;20597;-72
2023/08/11 10:19:20;;;;;;;6.22;2.88;;;45.80;45.40;;;;;;4996894;28;20097;-72
2023/08/11 10:21:45;;;;;;;6.28;2.67;;;47.00;44.80;;;;;;4989016;28;20031;-71
2023/08/11 10:24:12;;;;;;;11.02;2.78;;;47.00;44.50;;;;;;4979145;28;20030;-72
2023/08/11 10:26:38;;;;;;;5.18;2.70;;;47.10;44.40;;;;;;4989673;28;20030;-73
2023/08/11 10:29:04;;;;;;;12.25;2.50;;;45.30;43.50;;;;;;4982326;28;20394;-72
2023/08/11 10:31:33;;;;;;;9.82;2.88;;;44.90;45.30;;;;;;4977041;28;20038;-72
2023/08/11 10:34:05;;;;;;;6.18;2.67;;;46.10;44.50;;;;;;4979036;28;20092;-73
2023/08/11 10:36:32;;;;;;;3.95;2.35;;;46.50;44.90;;;;;;4989836;28;20120;-73
2023/08/11 10:39:05;;;;;;;6.07;2.63;;;45.50;44.30;;;;;;4980085;28;20026;-73
2023/08/11 10:41:32;;;;;;;4.80;2.47;;;46.40;44.80;;;;;;4980763;28;20036;-72
2023/08/11 10:43:58;;;;;;;3.78;2.38;;;45.90;45.40;;;;;;4978560;28;20026;-73
2023/08/11 10:46:26;;;;;;;5.32;2.50;;;43.80;44.80;;;;;;4981573;28;20034;-72
2023/08/11 10:48:54;;;;;;;3.63;2.25;;;40.80;48.10;;;;;;4980004;28;20034;-72
2023/08/11 10:51:30;;;;;;;5.13;2.30;;;39.10;53.40;;;;;;4978684;28;20129;-73
2023/08/11 10:54:11;;;;;;;;;;;36.40;52.90;;;;;;4984590;28;20038;-72
2023/08/11 10:56:43;;;;;;;8.32;2.50;;;35.20;58.20;;;;;;4985183;28;19926;-72
2023/08/11 10:59:11;;;;;;;9.57;2.25;;;34.80;57.90;;;;;;4987278;28;20505;-72
2023/08/11 11:01:39;;;;;;;6.93;2.88;;;34.30;61.70;;;;;;4979523;28;20049;-72
2023/08/11 11:04:08;;;;;;;4.78;2.58;;;33.70;59.80;;;;;;5007796;28;20125;-71
2023/08/11 11:06:35;;;;;;;5.03;2.50;;;33.60;61.50;;;;;;4982792;28;20027;-72
2023/08/11 11:09:04;;;;;;;8.45;2.72;;;33.90;62.20;;;;;;4983678;28;20146;-72
2023/08/11 11:11:30;;;;;;;17.70;2.95;;;34.00;60.70;;;;;;4978281;28;20770;-72
2023/08/11 11:13:57;;;;;;;8.80;2.78;;;33.90;61.10;;;;;;4977389;28;20025;-72
2023/08/11 11:16:23;;;;;;;8.80;3.00;;;33.70;62.20;;;;;;4976575;28;20039;-72
2023/08/11 11:18:48;;;;;;;;;;;33.60;62.50;;;;;;4979785;28;20101;-71
2023/08/11 11:21:15;;;;;;;4.72;2.58;;;33.20;59.30;;;;;;4979164;28;19914;-71
2023/08/11 11:23:48;;;;;;;7.10;2.40;;;33.30;61.00;;;;;;4980511;28;20034;-72
2023/08/11 11:26:16;;;;;;;4.43;2.72;;;33.40;60.60;;;;;;4995141;28;20019;-72
2023/08/11 11:28:41;;;;;;;7.20;2.67;;;33.50;60.30;;;;;;4984723;28;20019;-72
2023/08/11 11:31:07;;;;;;;;;;;33.10;62.90;;;;;;4976103;28;20023;-71
2023/08/11 11:33:33;;;;;;;4.07;2.40;;;33.10;60.30;;;;;;4981812;28;19970;-72
2023/08/11 11:35:58;;;;;;;;;;;33.00;63.10;;;;;;4979200;28;20046;-71
2023/08/11 11:38:24;;;;;;;4.85;2.50;;;33.00;60.40;;;;;;4986341;28;19917;-72
2023/08/11 11:40:51;;;;;;;7.78;2.58;;;33.20;62.80;;;;;;4980313;28;20141;-72
2023/08/11 11:43:17;;;;;;;9.20;2.30;;;33.40;61.60;;;;;;4984172;28;20035;-72
2023/08/11 11:45:43;;;;;;;;;;;33.40;60.50;;;;;;4979267;28;20039;-72
2023/08/11 11:48:08;;;;;;;5.90;2.15;;;33.60;58.30;;;;;;4973999;28;19906;-73
2023/08/11 11:50:34;;;;;;;;;;;33.50;57.60;;;;;;4979144;28;20478;-72
2023/08/11 11:53:00;;;;;;;3.47;2.53;;;33.30;58.50;;;;;;4978881;28;19910;-72
2023/08/11 11:55:26;;;;;;;;;;;33.40;58.30;;;;;;4975046;28;20047;-73
2023/08/11 11:57:52;;;;;;;3.40;2.00;;;33.40;56.70;;;;;;4977313;28;20385;-72
2023/08/11 12:00:18;;;;;;;4.28;1.95;;;33.30;58.10;;;;;;4980667;28;20042;-72
2023/08/11 12:02:45;;;;;;;2.78;1.58;;;33.40;56.10;;;;;;4976069;28;20062;-72
2023/08/11 12:05:12;;;;;;;4.25;2.00;;;33.40;55.80;;;;;;4980480;28;20411;-71
2023/08/11 12:07:38;;;;;;;2.65;1.88;;;33.50;55.40;;;;;;4982147;28;20091;-71
2023/08/11 12:10:04;;;;;;;;;;;33.40;54.60;;;;;;4995064;28;20110;-71
2023/08/11 12:12:30;;;;;;;3.90;1.88;;;33.50;55.90;;;;;;4984330;28;19908;-71
2023/08/11 12:15:03;;;;;;;;;;;33.30;58.60;;;;;;4978545;28;20490;-72
2023/08/11 12:17:33;;;;;;;2.78;1.70;;;33.40;59.90;;;;;;4975517;28;20056;-70
2023/08/11 12:20:03;;;;;;;9.57;2.00;;;32.00;55.80;;;;;;4975064;28;20734;-70
2023/08/11 12:22:29;;;;;;;2.60;1.70;;;32.60;55.70;;;;;;4996373;28;20038;-71
2023/08/11 12:24:55;;;;;;;;;;;32.50;56.00;;;;;;4980639;28;20034;-72
2023/08/11 12:27:20;;;;;;;2.03;1.60;;;32.10;55.60;;;;;;4984596;28;20313;-73
2023/08/11 12:29:46;;;;;;;2.90;1.70;;;32.00;59.90;;;;;;4982084;28;20030;-72
2023/08/11 12:32:12;;;;;;;;;;;32.60;59.20;;;;;;4984043;28;20214;-72
2023/08/11 12:34:38;;;;;;;2.20;1.80;;;32.80;57.30;;;;;;4983948;28;19925;-72
2023/08/11 12:37:03;;;;;;;;;;;33.10;55.80;;;;;;4987243;28;20038;-73
2023/08/11 12:39:29;;;;;;;5.43;2.15;;;33.30;56.40;;;;;;4983782;28;20261;-73
2023/08/11 12:41:55;;;;;;;5.00;2.25;;;33.30;57.00;;;;;;4981463;28;20087;-73
2023/08/11 12:44:20;;;;;;;;;;;33.20;58.90;;;;;;4986784;28;20078;-73
2023/08/11 12:46:46;;;;;;;2.83;1.90;;;32.90;60.50;;;;;;4990881;28;19949;-73